Time;durP1;ratioP1;P1;durP2;ratioP2;P2;SDS_P1;SDS_P2;PMS_P1;PMS_P2;Temp;Humidity;BMP_temperature;BMP_pressure;BME280_temperature;BME280_humidity;BME280_pressure;Samples;Min_cycle;Max_cycle;Signal;HPM_P1;HPM_P2
2022/04/03 00:00:42;;;;;;;18.15;9.00;;;;;;;-1.75;71.05;102253.72;5096842;28;20047;-52
2022/04/03 00:03:08;;;;;;;18.10;9.43;;;;;;;-1.74;70.05;102241.84;5096772;28;20046;-54
2022/04/03 00:05:38;;;;;;;18.13;8.80;;;;;;;-1.71;70.09;102240.63;5097007;28;20400;-54
2022/04/03 00:08:04;;;;;;;17.25;9.13;;;;;;;-1.76;70.64;102240.38;5096752;28;20116;-54
2022/04/03 00:10:30;;;;;;;18.30;9.55;;;;;;;-1.77;70.16;102244.09;5096187;28;20024;-54
2022/04/03 00:12:55;;;;;;;17.30;9.30;;;;;;;-1.81;70.57;102240.06;5096150;28;20042;-54
2022/04/03 00:15:20;;;;;;;19.13;9.82;;;;;;;-1.79;71.50;102235.31;5095970;28;20032;-54
2022/04/03 00:17:45;;;;;;;19.02;10.38;;;;;;;-1.81;71.44;102245.50;5096716;28;20043;-53
2022/04/03 00:20:12;;;;;;;18.80;9.48;;;;;;;-1.84;71.43;102243.19;5096057;28;20028;-53
2022/04/03 00:22:38;;;;;;;16.80;9.77;;;;;;;-1.88;71.19;102243.56;5096129;28;20062;-54
2022/04/03 00:25:03;;;;;;;16.38;9.60;;;;;;;-1.82;70.97;102232.97;5096347;28;20113;-54
2022/04/03 00:27:29;;;;;;;16.65;9.07;;;;;;;-1.84;71.10;102237.75;5096041;28;20028;-54
2022/04/03 00:29:54;;;;;;;19.45;9.77;;;;;;;-1.86;71.75;102239.81;5096577;28;20392;-55
2022/04/03 00:32:20;;;;;;;20.27;9.32;;;;;;;-1.88;71.88;102237.28;5095989;28;20176;-53
2022/04/03 00:34:45;;;;;;;17.73;9.40;;;;;;;-1.89;71.84;102231.00;5095985;28;20089;-53
2022/04/03 00:37:11;;;;;;;16.98;9.38;;;;;;;-1.93;71.81;102232.41;5095230;28;20496;-55
2022/04/03 00:39:36;;;;;;;18.20;9.02;;;;;;;-1.97;72.02;102230.25;5095906;28;20046;-54
2022/04/03 00:42:03;;;;;;;16.80;9.50;;;;;;;-2.00;72.26;102238.78;5095676;28;20379;-55
2022/04/03 00:44:29;;;;;;;17.40;9.40;;;;;;;-2.02;72.39;102248.97;5095865;28;20085;-53
2022/04/03 00:46:56;;;;;;;18.50;9.55;;;;;;;-2.02;72.60;102241.69;5095968;28;20032;-54
2022/04/03 00:49:22;;;;;;;18.58;9.23;;;;;;;-2.02;72.95;102244.38;5095874;28;20028;-54
2022/04/03 00:51:47;;;;;;;19.13;9.50;;;;;;;-2.04;72.59;102238.34;5095687;28;20032;-54
2022/04/03 00:54:12;;;;;;;18.33;9.60;;;;;;;-2.05;72.72;102240.19;5095947;28;20032;-53
2022/04/03 00:56:38;;;;;;;16.83;9.60;;;;;;;-2.07;72.85;102244.94;5096141;28;20028;-55
2022/04/03 00:59:03;;;;;;;19.35;10.02;;;;;;;-2.09;73.11;102235.31;5095677;28;20102;-55
2022/04/03 01:01:28;;;;;;;18.75;9.85;;;;;;;-2.11;73.52;102246.38;5095550;28;20376;-54
2022/04/03 01:03:54;;;;;;;18.02;9.45;;;;;;;-2.14;73.53;102233.19;5095169;28;20144;-54
2022/04/03 01:06:19;;;;;;;17.15;9.43;;;;;;;-2.18;74.09;102239.16;5094498;28;20392;-54
2022/04/03 01:08:45;;;;;;;19.15;9.90;;;;;;;-2.21;73.83;102234.97;5095534;28;20499;-60
2022/04/03 01:11:13;;;;;;;17.45;9.57;;;;;;;-2.19;74.28;102232.91;5095404;28;20023;-54
2022/04/03 01:13:50;;;;;;;18.85;9.95;;;;;;;-2.17;74.43;102233.53;5077323;28;20031;-54
2022/04/03 01:16:15;;;;;;;17.13;9.77;;;;;;;-2.19;74.51;102232.91;5076913;28;20388;-54
2022/04/03 01:18:40;;;;;;;18.38;9.95;;;;;;;-2.21;74.32;102227.66;5094800;28;20506;-54
2022/04/03 01:21:06;;;;;;;17.90;9.70;;;;;;;-2.18;74.57;102231.88;5095365;28;20445;-55
2022/04/03 01:23:31;;;;;;;20.13;10.27;;;;;;;-2.22;74.98;102236.81;5095341;28;20487;-55
2022/04/03 01:25:57;;;;;;;20.25;10.48;;;;;;;-2.25;75.17;102230.91;5095107;28;20620;-55
2022/04/03 01:28:23;;;;;;;19.60;10.68;;;;;;;-2.28;75.10;102236.75;5095003;28;20032;-55
2022/04/03 01:30:49;;;;;;;19.67;10.52;;;;;;;-2.30;75.60;102233.38;5095095;28;20123;-55
2022/04/03 01:33:14;;;;;;;18.83;10.50;;;;;;;-2.30;76.07;102234.19;5095074;28;20093;-55
2022/04/03 01:35:39;;;;;;;20.40;11.50;;;;;;;-2.33;76.02;102242.72;5095034;28;20107;-55
2022/04/03 01:38:05;;;;;;;18.85;10.07;;;;;;;-2.32;75.84;102236.28;5094200;28;20106;-54
2022/04/03 01:40:34;;;;;;;18.67;10.13;;;;;;;-2.34;76.90;102227.47;5094290;28;20023;-56
2022/04/03 01:42:59;;;;;;;20.98;11.23;;;;;;;-2.31;76.91;102231.69;5094196;28;20384;-53
2022/04/03 01:45:24;;;;;;;18.42;10.10;;;;;;;-2.34;76.90;102227.47;5094757;28;20062;-54
2022/04/03 01:47:50;;;;;;;17.50;10.23;;;;;;;-2.33;76.65;102229.16;5094292;28;20043;-55
2022/04/03 01:50:15;;;;;;;21.38;10.52;;;;;;;-2.35;77.07;102231.22;5094983;28;20461;-55
2022/04/03 01:52:40;;;;;;;18.55;10.23;;;;;;;-2.37;77.50;102231.41;5094076;28;20503;-54
2022/04/03 01:55:06;;;;;;;19.55;10.40;;;;;;;-2.38;77.39;102220.72;5094478;28;20032;-54
2022/04/03 01:57:31;;;;;;;19.33;10.50;;;;;;;-2.40;77.10;102223.63;5094227;28;20039;-54
2022/04/03 01:59:56;;;;;;;18.48;10.35;;;;;;;-2.39;76.88;102225.31;5094261;28;20552;-54
2022/04/03 02:02:22;;;;;;;19.58;10.07;;;;;;;-2.41;77.43;102218.41;5093988;28;20024;-54
2022/04/03 02:04:47;;;;;;;20.25;10.27;;;;;;;-2.42;77.15;102224.84;5076775;28;20044;-54
2022/04/03 02:07:12;;;;;;;20.67;10.70;;;;;;;-2.44;77.86;102222.31;5094227;28;20195;-52
2022/04/03 02:09:38;;;;;;;20.73;10.60;;;;;;;-2.44;77.44;102227.72;5094361;28;20036;-53
2022/04/03 02:12:05;;;;;;;19.00;10.68;;;;;;;-2.47;77.54;102217.28;5093745;28;20034;-53
2022/04/03 02:14:30;;;;;;;21.30;11.50;;;;;;;-2.51;78.46;102218.66;5093815;28;20125;-54
2022/04/03 02:16:57;;;;;;;18.02;10.60;;;;;;;-2.55;78.00;102223.63;5092859;28;20543;-55
2022/04/03 02:19:23;;;;;;;19.42;10.50;;;;;;;-2.60;78.68;102219.78;5094188;28;20495;-54
2022/04/03 02:21:48;;;;;;;18.33;10.32;;;;;;;-2.58;79.38;102217.72;5075363;28;20020;-54
2022/04/03 02:24:14;;;;;;;20.70;11.25;;;;;;;-2.58;79.47;102215.00;5094084;28;20383;-54
2022/04/03 02:26:40;;;;;;;19.15;10.68;;;;;;;-2.51;79.07;102219.53;5093810;28;20020;-54
2022/04/03 02:29:06;;;;;;;21.27;10.90;;;;;;;-2.54;79.02;102219.88;5077878;28;20036;-53
2022/04/03 02:31:32;;;;;;;20.73;10.82;;;;;;;-2.54;78.73;102217.16;5073942;28;20400;-53
2022/04/03 02:33:57;;;;;;;20.17;10.57;;;;;;;-2.52;79.06;102216.97;5074411;28;20056;-52
2022/04/03 02:36:23;;;;;;;20.70;12.13;;;;;;;-2.56;78.98;102215.69;5074470;28;20031;-54
2022/04/03 02:38:48;;;;;;;17.33;10.32;;;;;;;-2.55;79.35;102214.66;5073245;28;20066;-54
2022/04/03 02:41:14;;;;;;;19.75;10.85;;;;;;;-2.56;79.82;102212.97;5073234;28;20161;-51
2022/04/03 02:43:40;;;;;;;19.98;11.45;;;;;;;-2.58;79.42;102212.31;5073555;28;20063;-51
2022/04/03 02:46:06;;;;;;;20.17;11.15;;;;;;;-2.58;79.94;102215.00;5073356;28;20426;-53
2022/04/03 02:48:32;;;;;;;20.65;11.20;;;;;;;-2.56;79.56;102213.78;5073940;28;20028;-55
2022/04/03 02:50:57;;;;;;;20.48;11.68;;;;;;;-2.52;79.72;102211.56;5073852;28;20032;-54
2022/04/03 02:53:22;;;;;;;21.30;12.60;;;;;;;-2.52;80.05;102217.84;5073253;28;20016;-55
2022/04/03 02:55:48;;;;;;;21.23;11.35;;;;;;;-2.52;79.35;102223.25;5073266;28;20096;-54
2022/04/03 02:58:14;;;;;;;22.40;11.85;;;;;;;-2.54;79.80;102229.84;5073406;28;20047;-55
2022/04/03 03:00:39;;;;;;;21.15;11.80;;;;;;;-2.53;79.36;102216.16;5073221;28;20036;-53
2022/04/03 03:03:06;;;;;;;20.33;11.90;;;;;;;-2.58;79.90;102223.97;5073779;28;20476;-53
2022/04/03 03:05:32;;;;;;;22.65;12.63;;;;;;;-2.61;80.02;102228.91;5073171;28;20489;-54
2022/04/03 03:07:58;;;;;;;20.35;12.18;;;;;;;-2.64;80.01;102232.00;5073591;28;20054;-54
2022/04/03 03:10:23;;;;;;;23.38;13.80;;;;;;;-2.68;81.05;102228.81;5073434;28;20085;-55
2022/04/03 03:12:48;;;;;;;22.35;13.13;;;;;;;-2.72;80.89;102227.50;5072625;28;20031;-55
2022/04/03 03:15:15;;;;;;;22.08;13.45;;;;;;;-2.76;80.77;102232.44;5054887;28;20044;-55
2022/04/03 03:17:40;;;;;;;25.60;12.93;;;;;;;-2.78;80.83;102231.78;5073578;28;20025;-54
2022/04/03 03:20:06;;;;;;;20.33;12.63;;;;;;;-2.76;80.70;102232.44;5073465;28;20031;-54
2022/04/03 03:22:33;;;;;;;22.80;13.82;;;;;;;-2.74;80.95;102241.22;5072976;28;20031;-54
2022/04/03 03:24:59;;;;;;;24.65;15.73;;;;;;;-2.76;81.42;102240.56;5072925;28;20456;-56
2022/04/03 03:27:24;;;;;;;22.35;13.30;;;;;;;-2.79;81.53;102240.94;5072267;28;20033;-54
2022/04/03 03:29:49;;;;;;;23.75;14.13;;;;;;;-2.82;81.07;102239.44;5072339;28;20044;-50
2022/04/03 03:32:14;;;;;;;23.13;14.07;;;;;;;-2.83;81.33;102235.03;5072726;28;20024;-56
2022/04/03 03:34:40;;;;;;;22.95;14.70;;;;;;;-2.86;82.15;102242.69;5073396;28;20032;-53
2022/04/03 03:37:05;;;;;;;22.70;15.45;;;;;;;-2.89;81.78;102238.50;5073105;28;20388;-56
2022/04/03 03:39:31;;;;;;;23.98;15.20;;;;;;;-2.90;81.97;102239.50;5072766;28;20074;-53
2022/04/03 03:41:56;;;;;;;22.75;15.57;;;;;;;-2.87;81.62;102241.00;5072829;28;20037;-55
2022/04/03 03:44:22;;;;;;;22.75;14.98;;;;;;;-2.86;82.25;102242.69;5072600;28;20044;-54
2022/04/03 03:46:47;;;;;;;24.42;15.40;;;;;;;-2.88;82.36;102242.84;5072520;28;20480;-55
2022/04/03 03:49:14;;;;;;;24.25;15.25;;;;;;;-2.89;82.31;102238.50;5072747;28;20131;-55
2022/04/03 03:51:40;;;;;;;25.20;15.75;;;;;;;-2.92;82.78;102243.41;5072861;28;20035;-55
2022/04/03 03:54:05;;;;;;;24.40;16.20;;;;;;;-2.94;83.05;102234.63;5072667;28;20411;-54
2022/04/03 03:56:31;;;;;;;24.17;15.10;;;;;;;-2.95;82.29;102239.19;5072951;28;20025;-55
2022/04/03 03:58:56;;;;;;;23.80;14.02;;;;;;;-2.94;82.81;102242.75;5072866;28;20473;-54
2022/04/03 04:01:22;;;;;;;26.75;14.98;;;;;;;-2.97;82.75;102233.13;5073332;28;20040;-55
2022/04/03 04:03:48;;;;;;;25.60;14.90;;;;;;;-2.99;82.49;102237.88;5073286;28;20448;-54
2022/04/03 04:06:13;;;;;;;25.60;16.30;;;;;;;-2.97;82.33;102241.25;5073001;28;20021;-54
2022/04/03 04:08:39;;;;;;;22.83;14.02;;;;;;;-2.98;82.29;102236.88;5073152;28;20496;-53
2022/04/03 04:11:05;;;;;;;23.02;14.38;;;;;;;-3.01;83.20;102235.34;5073287;28;20029;-52
2022/04/03 04:13:30;;;;;;;23.00;13.55;;;;;;;-3.00;83.10;102236.22;5073081;28;20021;-54
2022/04/03 04:15:56;;;;;;;22.90;13.90;;;;;;;-3.00;83.08;102236.22;5055146;28;20055;-54
2022/04/03 04:18:21;;;;;;;23.42;13.63;;;;;;;-3.05;83.01;102235.88;5072562;28;20357;-55
2022/04/03 04:20:46;;;;;;;25.38;16.20;;;;;;;-3.06;83.26;102235.06;5073038;28;20037;-53
2022/04/03 04:23:13;;;;;;;23.92;13.82;;;;;;;-3.09;83.15;102238.13;5072525;28;20025;-53
2022/04/03 04:25:38;;;;;;;23.10;13.70;;;;;;;-3.10;83.19;102236.44;5073003;28;20059;-55
2022/04/03 04:28:05;;;;;;;23.42;13.52;;;;;;;-3.12;82.61;102235.78;5072841;28;20024;-54
2022/04/03 04:30:30;;;;;;;22.98;14.15;;;;;;;-3.15;83.25;102228.84;5072198;28;20044;-55
2022/04/03 04:32:55;;;;;;;22.80;13.73;;;;;;;-3.16;82.62;102231.75;5072712;28;20029;-55
2022/04/03 04:35:21;;;;;;;22.92;13.90;;;;;;;-3.13;83.20;102239.53;5072740;28;20040;-54
2022/04/03 04:37:46;;;;;;;22.73;13.77;;;;;;;-3.07;83.03;102238.78;5072380;28;20442;-54
2022/04/03 04:40:13;;;;;;;23.10;13.82;;;;;;;-3.07;82.42;102254.19;5073680;28;20032;-52
2022/04/03 04:42:38;;;;;;;24.45;13.60;;;;;;;-3.10;83.42;102260.78;5076420;28;20035;-54
2022/04/03 04:45:07;;;;;;;22.88;13.63;;;;;;;-3.12;83.41;102254.75;5075922;28;20032;-54
2022/04/03 04:47:39;;;;;;;24.50;15.30;;;;;;;-3.15;83.03;102255.09;5075857;28;20024;-53
2022/04/03 04:50:14;;;;;;;23.15;13.82;;;;;;;-3.20;83.79;102261.03;5076069;28;20056;-55
2022/04/03 04:52:40;;;;;;;21.52;13.27;;;;;;;-3.24;83.70;102261.59;5076274;28;20040;-53
2022/04/03 04:55:07;;;;;;;22.77;14.20;;;;;;;-3.29;83.30;102268.34;5075621;28;20491;-54
2022/04/03 04:57:33;;;;;;;23.05;13.90;;;;;;;-3.30;83.42;102265.84;5075525;28;20370;-54
2022/04/03 05:00:00;;;;;;;23.35;14.05;;;;;;;-3.31;83.39;102265.00;5076042;28;20029;-55
2022/04/03 05:02:25;;;;;;;21.85;13.65;;;;;;;-3.27;84.09;102268.19;5075767;28;20107;-53
2022/04/03 05:04:51;;;;;;;24.67;14.52;;;;;;;-3.24;84.14;102272.41;5075360;28;20101;-54
2022/04/03 05:07:16;;;;;;;24.52;15.30;;;;;;;-3.22;84.05;102273.91;5075673;28;20028;-55
2022/04/03 05:09:43;;;;;;;35.75;22.45;;;;;;;-3.22;83.54;102268.50;5075240;28;20384;-55
2022/04/03 05:12:09;;;;;;;36.83;23.70;;;;;;;-3.21;83.81;102277.47;5075841;28;20032;-55
2022/04/03 05:14:35;;;;;;;39.60;24.08;;;;;;;-3.21;83.79;102270.19;5075742;28;20024;-55
2022/04/03 05:17:00;;;;;;;33.42;20.80;;;;;;;-3.18;83.63;102274.38;5075944;28;20461;-53
2022/04/03 05:19:26;;;;;;;31.15;19.08;;;;;;;-3.18;84.03;102269.84;5075978;28;20048;-56
2022/04/03 05:21:52;;;;;;;33.67;19.17;;;;;;;-3.14;83.98;102270.31;5075878;28;20552;-53
2022/04/03 05:24:18;;;;;;;33.00;18.77;;;;;;;-3.11;84.14;102279.94;5075193;28;20146;-55
2022/04/03 05:26:43;;;;;;;50.72;28.75;;;;;;;-3.07;84.18;102276.69;5075015;28;20119;-55
2022/04/03 05:29:09;;;;;;;40.20;24.95;;;;;;;-3.04;83.94;102281.75;5075231;28;20075;-55
2022/04/03 05:31:35;;;;;;;35.47;21.60;;;;;;;-3.00;84.14;102280.34;5075544;28;20553;-54
2022/04/03 05:34:00;;;;;;;26.52;15.77;;;;;;;-2.94;84.29;102280.69;5075160;28;20024;-53
2022/04/03 05:36:26;;;;;;;25.73;15.50;;;;;;;-2.88;84.08;102282.66;5075173;28;20508;-55
2022/04/03 05:38:51;;;;;;;26.27;15.10;;;;;;;-2.83;83.80;102280.22;5074869;28;20032;-50
2022/04/03 05:41:16;;;;;;;28.92;16.02;;;;;;;-2.76;84.39;102283.91;5074962;28;20033;-53
2022/04/03 05:43:42;;;;;;;26.42;15.85;;;;;;;-2.68;83.85;102285.69;5074995;28;20028;-55
2022/04/03 05:46:07;;;;;;;26.65;14.32;;;;;;;-2.60;84.07;102285.66;5075292;28;20024;-54
2022/04/03 05:48:32;;;;;;;25.95;14.95;;;;;;;-2.49;83.88;102299.75;5074847;28;20376;-55
2022/04/03 05:50:58;;;;;;;27.42;16.83;;;;;;;-2.42;83.33;102296.16;5074688;28;20060;-55
2022/04/03 05:53:23;;;;;;;24.48;14.88;;;;;;;-2.31;83.09;102291.31;5074839;28;20029;-52
2022/04/03 05:55:48;;;;;;;22.15;13.65;;;;;;;-2.21;83.04;102297.31;5073929;28;20456;-54
2022/04/03 05:58:13;;;;;;;22.60;12.65;;;;;;;-2.09;82.19;102290.41;5074981;28;20081;-54
2022/04/03 06:00:39;;;;;;;21.40;11.70;;;;;;;-1.95;82.06;102293.31;5074692;28;20078;-55
2022/04/03 06:03:04;;;;;;;21.63;11.90;;;;;;;-1.83;81.54;102293.69;5074475;28;20368;-52
2022/04/03 06:05:34;;;;;;;21.48;11.65;;;;;;;-1.76;81.18;102295.47;5074947;28;20481;-55
2022/04/03 06:08:00;;;;;;;23.05;13.30;;;;;;;-1.67;80.82;102298.06;5074969;28;20287;-53
2022/04/03 06:10:26;;;;;;;24.98;15.10;;;;;;;-1.61;81.07;102290.03;5074689;28;20510;-56
2022/04/03 06:12:55;;;;;;;22.10;13.13;;;;;;;-1.53;81.37;102299.09;5074173;28;20024;-54
2022/04/03 06:15:21;;;;;;;33.38;21.52;;;;;;;-1.50;80.72;102296.00;5074527;28;20028;-54
2022/04/03 06:17:51;;;;;;;29.35;18.00;;;;;;;-1.44;80.76;102297.94;5074477;28;20387;-56
2022/04/03 06:20:21;;;;;;;26.42;14.25;;;;;;;-1.41;80.53;102298.41;5074081;28;20063;-55
2022/04/03 06:22:47;;;;;;;22.55;13.30;;;;;;;-1.36;80.59;102299.72;5073984;28;20499;-49
2022/04/03 06:25:12;;;;;;;30.38;15.45;;;;;;;-1.33;80.70;102299.34;5072745;28;20435;-54
2022/04/03 06:27:38;;;;;;;31.05;15.50;;;;;;;-1.27;80.32;102298.59;5073730;28;20059;-55
2022/04/03 06:30:04;;;;;;;30.98;16.45;;;;;;;-1.21;80.31;102305.13;5073873;28;20020;-54
2022/04/03 06:32:29;;;;;;;28.38;15.30;;;;;;;-1.15;80.10;102301.63;5074061;28;20035;-51
2022/04/03 06:34:55;;;;;;;65.78;27.67;;;;;;;-1.10;80.71;102300.03;5074247;28;20024;-51
2022/04/03 06:37:20;;;;;;;53.65;23.98;;;;;;;-1.03;79.97;102297.38;5074354;28;20040;-51
2022/04/03 06:39:45;;;;;;;68.57;30.08;;;;;;;-1.00;80.31;102299.72;5074068;28;20033;-54
2022/04/03 06:42:10;;;;;;;92.90;36.83;;;;;;;-0.99;80.30;102301.38;5073658;28;20025;-54
2022/04/03 06:44:38;;;;;;;84.00;34.55;;;;;;;-1.01;80.69;102294.47;5073868;28;20089;-51
2022/04/03 06:47:03;;;;;;;66.93;29.13;;;;;;;-1.00;80.38;102301.59;5079193;28;20073;-55
2022/04/03 06:49:31;;;;;;;89.32;35.53;;;;;;;-0.99;80.42;102297.84;5082342;28;20412;-56
2022/04/03 06:51:56;;;;;;;43.78;21.10;;;;;;;-1.00;80.61;102299.72;5065980;28;20081;-53
2022/04/03 06:54:21;;;;;;;40.63;19.63;;;;;;;-1.00;80.55;102299.72;5085969;28;20561;-56
2022/04/03 06:56:47;;;;;;;26.88;13.02;;;;;;;-0.99;79.99;102301.38;5084684;28;20028;-54
2022/04/03 06:59:12;;;;;;;24.85;12.88;;;;;;;-0.98;80.25;102305.78;5068475;28;20027;-54
2022/04/03 07:01:39;;;;;;;25.25;13.50;;;;;;;-1.00;80.37;102302.44;5094010;28;20050;-53
2022/04/03 07:04:05;;;;;;;26.88;14.40;;;;;;;-0.97;80.63;102303.94;5093219;28;20044;-55
2022/04/03 07:06:30;;;;;;;27.17;14.93;;;;;;;-0.95;80.91;102307.31;5093716;28;20093;-54
2022/04/03 07:08:55;;;;;;;25.58;14.13;;;;;;;-0.93;81.18;102305.22;5093534;28;20063;-52
2022/04/03 07:11:20;;;;;;;25.05;15.10;;;;;;;-0.90;81.44;102307.53;5093803;28;20024;-53
2022/04/03 07:13:46;;;;;;;24.02;14.25;;;;;;;-0.84;81.54;102297.78;5093406;28;20028;-53
2022/04/03 07:16:11;;;;;;;25.10;15.02;;;;;;;-0.79;81.66;102300.75;5094030;28;20032;-51
2022/04/03 07:18:37;;;;;;;28.15;15.98;;;;;;;-0.72;81.73;102300.81;5093145;28;20504;-53
2022/04/03 07:21:02;;;;;;;29.05;16.58;;;;;;;-0.70;81.70;102307.72;5093249;28;20027;-51
2022/04/03 07:23:27;;;;;;;29.45;17.25;;;;;;;-0.68;81.62;102300.22;5093250;28;20024;-52
2022/04/03 07:25:53;;;;;;;35.33;21.85;;;;;;;-0.64;81.82;102306.13;5093298;28;20028;-51
2022/04/03 07:28:18;;;;;;;34.95;20.35;;;;;;;-0.52;81.49;102299.13;5092973;28;20048;-52
2022/04/03 07:30:44;;;;;;;33.25;20.27;;;;;;;-0.43;81.33;102307.13;5079044;28;20016;-50
2022/04/03 07:33:09;;;;;;;33.05;20.25;;;;;;;-0.32;81.64;102310.16;5083184;28;20115;-54
2022/04/03 07:35:34;;;;;;;34.42;21.83;;;;;;;-0.23;81.46;102312.72;5064126;28;20060;-53
2022/04/03 07:38:00;;;;;;;32.53;20.55;;;;;;;-0.13;81.61;102317.84;5080784;28;20448;-54
2022/04/03 07:40:25;;;;;;;29.13;17.08;;;;;;;-0.03;81.51;102316.44;5076763;28;20056;-54
2022/04/03 07:42:52;;;;;;;30.02;19.60;;;;;;;0.14;81.32;102318.88;5080113;28;20111;-55
2022/04/03 07:45:18;;;;;;;27.88;16.70;;;;;;;0.24;80.54;102319.31;5074872;28;20424;-53
2022/04/03 07:47:50;;;;;;;30.77;17.17;;;;;;;0.36;80.71;102322.34;5075102;28;20034;-52
2022/04/03 07:50:18;;;;;;;23.90;14.55;;;;;;;0.48;80.15;102311.72;5074878;28;20068;-54
2022/04/03 07:52:45;;;;;;;26.08;14.00;;;;;;;0.59;78.75;102318.47;5080525;28;20027;-51
2022/04/03 07:55:12;;;;;;;22.15;12.25;;;;;;;0.67;78.57;102318.28;5085964;28;20032;-53
2022/04/03 07:57:39;;;;;;;23.00;12.73;;;;;;;0.80;77.96;102316.66;5085102;28;20081;-48
2022/04/03 08:00:10;;;;;;;21.92;12.63;;;;;;;0.92;77.93;102315.03;5088550;28;20491;-48
2022/04/03 08:02:39;;;;;;;20.83;11.70;;;;;;;1.04;76.82;102324.28;5090831;28;20087;-51
2022/04/03 08:05:05;;;;;;;23.35;11.55;;;;;;;1.18;76.75;102316.97;5091655;28;20059;-53
2022/04/03 08:07:38;;;;;;;20.92;11.85;;;;;;;1.31;76.22;102324.34;5084984;28;20051;-53
2022/04/03 08:10:08;;;;;;;19.92;11.20;;;;;;;1.42;76.02;102320.16;5078444;28;20354;-54
2022/04/03 08:12:38;;;;;;;18.55;10.57;;;;;;;1.59;74.31;102323.31;5071216;28;20475;-51
2022/04/03 08:15:05;;;;;;;20.65;10.52;;;;;;;1.71;74.03;102323.53;5072437;28;20036;-53
2022/04/03 08:17:31;;;;;;;15.55;8.52;;;;;;;1.83;71.32;102329.19;5074755;28;20484;-53
2022/04/03 08:19:56;;;;;;;17.33;9.10;;;;;;;1.91;70.57;102323.50;5074960;28;20395;-53
2022/04/03 08:22:22;;;;;;;18.13;9.00;;;;;;;2.05;70.91;102320.78;5074872;28;20028;-56
2022/04/03 08:24:48;;;;;;;14.98;8.35;;;;;;;2.16;70.48;102320.13;5075035;28;20024;-53
2022/04/03 08:27:14;;;;;;;14.95;8.55;;;;;;;2.21;69.98;102325.78;5074820;28;20081;-52
2022/04/03 08:29:39;;;;;;;19.08;8.93;;;;;;;2.29;70.77;102324.72;5074966;28;20032;-52
2022/04/03 08:32:05;;;;;;;14.88;8.13;;;;;;;2.38;69.96;102328.91;5074238;28;20050;-52
2022/04/03 08:34:31;;;;;;;13.52;8.55;;;;;;;2.45;69.16;102328.88;5074803;28;20036;-53
2022/04/03 08:36:57;;;;;;;14.77;7.82;;;;;;;2.49;69.11;102320.03;5074696;28;20020;-54
2022/04/03 08:39:23;;;;;;;15.73;8.10;;;;;;;2.60;68.97;102318.53;5074549;28;20055;-54
2022/04/03 08:41:48;;;;;;;15.45;8.30;;;;;;;2.64;69.04;102319.78;5056662;28;20063;-57
2022/04/03 08:44:13;;;;;;;15.05;8.32;;;;;;;2.76;67.78;102319.06;5074604;28;20020;-54
2022/04/03 08:46:40;;;;;;;15.77;8.43;;;;;;;2.89;67.62;102313.56;5074812;28;20024;-54
2022/04/03 08:49:07;;;;;;;14.93;8.40;;;;;;;3.00;67.91;102320.22;5074749;28;20028;-52
2022/04/03 08:51:36;;;;;;;13.95;7.80;;;;;;;3.12;66.48;102323.94;5074556;28;20034;-53
2022/04/03 08:54:04;;;;;;;14.10;8.13;;;;;;;3.31;66.62;102318.56;5074542;28;20112;-52
2022/04/03 08:56:30;;;;;;;15.32;7.80;;;;;;;3.53;63.45;102326.41;5074656;28;20036;-53
2022/04/03 08:58:55;;;;;;;11.20;7.30;;;;;;;3.75;62.71;102329.59;5074421;28;20112;-54
2022/04/03 09:01:20;;;;;;;12.63;7.10;;;;;;;4.01;61.41;102323.06;5074555;28;20397;-51
2022/04/03 09:03:46;;;;;;;12.20;7.20;;;;;;;4.29;61.59;102323.59;5074052;28;20380;-53
2022/04/03 09:06:13;;;;;;;13.35;7.40;;;;;;;4.52;60.40;102321.03;5074505;28;20035;-53
2022/04/03 09:08:38;;;;;;;13.60;7.70;;;;;;;4.82;59.42;102320.22;5056452;28;20051;-54
2022/04/03 09:11:05;;;;;;;11.98;7.28;;;;;;;4.88;57.90;102317.63;5074127;28;20024;-50
2022/04/03 09:13:31;;;;;;;14.43;7.30;;;;;;;4.87;58.11;102307.72;5074019;28;20151;-52
2022/04/03 09:15:56;;;;;;;16.55;8.10;;;;;;;4.87;58.81;102318.69;5074236;28;20116;-53
2022/04/03 09:18:21;;;;;;;13.75;7.18;;;;;;;4.79;60.09;102312.47;5055979;28;20049;-53
2022/04/03 09:20:46;;;;;;;14.48;7.40;;;;;;;4.74;58.58;102308.75;5074181;28;20033;-51
2022/04/03 09:23:17;;;;;;;10.18;7.07;;;;;;;4.69;58.89;102321.22;5073770;28;20028;-49
2022/04/03 09:25:43;;;;;;;9.70;6.65;;;;;;;4.43;58.48;102311.44;5055026;28;20763;-50
2022/04/03 09:28:11;;;;;;;14.43;6.90;;;;;;;4.30;59.31;102311.59;5072914;28;20032;-51
2022/04/03 09:30:43;;;;;;;11.70;7.13;;;;;;;4.35;59.82;102314.47;5073184;28;20028;-54
2022/04/03 09:33:10;;;;;;;17.05;8.20;;;;;;;4.30;58.10;102315.16;5073597;28;20372;-52
2022/04/03 09:36:03;;;;;;;14.50;8.00;;;;;;;4.43;59.81;102305.13;5073526;28;20056;-51
2022/04/03 09:38:30;;;;;;;12.95;8.05;;;;;;;4.56;59.80;102307.72;5073748;28;20024;-54
2022/04/03 09:40:57;;;;;;;13.68;8.02;;;;;;;4.67;58.90;102308.81;5073778;28;20028;-54
2022/04/03 09:43:25;;;;;;;14.85;7.43;;;;;;;4.84;59.06;102301.63;5073403;28;20522;-52
2022/04/03 09:45:56;;;;;;;13.13;7.50;;;;;;;5.00;58.46;102304.81;5073277;28;20094;-51
2022/04/03 09:48:29;;;;;;;11.88;7.25;;;;;;;5.14;56.63;102306.28;5072833;28;20032;-50
2022/04/03 09:51:13;;;;;;;11.60;7.30;;;;;;;5.11;56.83;102295.78;5073136;28;20447;-51
2022/04/03 09:53:42;;;;;;;10.55;7.25;;;;;;;5.04;56.86;102295.03;5073695;28;20055;-53
2022/04/03 09:56:11;;;;;;;12.43;7.28;;;;;;;5.17;56.95;102294.00;5073348;28;20033;-52
2022/04/03 09:58:51;;;;;;;13.43;7.43;;;;;;;5.18;56.85;102300.34;5073585;28;20040;-53
2022/04/03 10:01:40;;;;;;;12.73;7.20;;;;;;;5.10;56.22;102288.59;5073148;28;20380;-52
2022/04/03 10:04:11;;;;;;;10.52;6.70;;;;;;;5.26;55.88;102280.78;5073121;28;20049;-53
2022/04/03 10:06:38;;;;;;;10.70;7.00;;;;;;;5.51;57.28;102283.34;5073034;28;20052;-51
2022/04/03 10:09:07;;;;;;;22.08;10.77;;;;;;;5.78;55.93;102272.72;5073212;28;20089;-52
2022/04/03 10:11:33;;;;;;;16.08;8.18;;;;;;;5.94;52.87;102268.44;5072887;28;20138;-52
2022/04/03 10:13:58;;;;;;;11.18;6.75;;;;;;;5.92;52.75;102273.31;5073038;28;20456;-53
2022/04/03 10:16:23;;;;;;;14.57;7.35;;;;;;;5.91;51.86;102277.16;5072942;28;20024;-53
2022/04/03 10:18:50;;;;;;;12.13;7.60;;;;;;;6.04;51.65;102270.63;5072848;28;20059;-54
2022/04/03 10:21:34;;;;;;;11.55;7.40;;;;;;;6.36;51.73;102264.69;5072946;28;20087;-53
2022/04/03 10:24:15;;;;;;;15.50;8.75;;;;;;;6.63;49.63;102260.56;5072890;28;20029;-54
2022/04/03 10:26:44;;;;;;;13.05;7.78;;;;;;;6.70;50.94;102255.75;5072435;28;20036;-54
2022/04/03 10:29:10;;;;;;;11.52;6.95;;;;;;;6.84;50.08;102259.91;5072943;28;20051;-54
2022/04/03 10:31:37;;;;;;;9.57;6.93;;;;;;;6.77;49.68;102259.19;5072902;28;20020;-53
2022/04/03 10:34:03;;;;;;;10.82;6.82;;;;;;;6.67;49.90;102253.47;5073003;28;20024;-51
2022/04/03 10:36:30;;;;;;;12.98;7.32;;;;;;;6.49;50.47;102258.09;5072978;28;20033;-54
2022/04/03 10:39:03;;;;;;;12.10;6.97;;;;;;;6.24;50.66;102274.88;5072033;28;20026;-53
2022/04/03 10:41:31;;;;;;;10.57;6.38;;;;;;;6.15;49.08;102259.84;5073070;28;20110;-52
2022/04/03 10:44:19;;;;;;;11.50;6.60;;;;;;;6.20;51.38;102258.03;5072557;28;20616;-52
2022/04/03 10:47:03;;;;;;;10.65;6.55;;;;;;;6.28;51.11;102250.53;5072261;28;20086;-51
2022/04/03 10:49:40;;;;;;;11.73;6.97;;;;;;;6.35;49.53;102249.28;5054440;28;20400;-52
2022/04/03 10:52:08;;;;;;;9.25;7.07;;;;;;;6.40;50.81;102240.31;5072277;28;20036;-53
2022/04/03 10:54:42;;;;;;;10.98;6.80;;;;;;;6.35;49.64;102241.03;5072165;28;20079;-52
2022/04/03 10:57:35;;;;;;;12.88;7.05;;;;;;;6.28;51.31;102245.84;5072235;28;20036;-50
2022/04/03 11:00:09;;;;;;;11.48;6.78;;;;;;;6.29;50.95;102232.94;5072172;28;20028;-51
2022/04/03 11:02:35;;;;;;;11.73;6.80;;;;;;;6.16;49.91;102243.13;5071834;28;20413;-54
2022/04/03 11:05:29;;;;;;;10.85;7.05;;;;;;;6.16;52.08;102236.78;5071690;28;20076;-53
2022/04/03 11:08:15;;;;;;;12.52;7.07;;;;;;;6.03;51.85;102236.00;5071760;28;20405;-53
2022/04/03 11:10:58;;;;;;;13.43;7.43;;;;;;;5.98;52.66;102240.50;5071918;28;20055;-53
2022/04/03 11:13:38;;;;;;;12.88;7.50;;;;;;;5.87;52.66;102234.78;5072011;28;20162;-52